sensor_id;sensor_type;location;lat;lon;timestamp;temperature;humidity
59146;DHT22;44928;53.074;6.646;2023-08-30T00:02:01;14.10;99.90
59146;DHT22;44928;53.074;6.646;2023-08-30T00:04:26;14.10;99.90
59146;DHT22;44928;53.074;6.646;2023-08-30T00:06:52;14.10;99.90
59146;DHT22;44928;53.074;6.646;2023-08-30T00:09:18;14.10;99.90
59146;DHT22;44928;53.074;6.646;2023-08-30T00:11:44;14.10;99.90
59146;DHT22;44928;53.074;6.646;2023-08-30T00:14:09;14.10;99.90
59146;DHT22;44928;53.074;6.646;2023-08-30T00:16:36;14.10;99.90
59146;DHT22;44928;53.074;6.646;2023-08-30T00:19:03;14.00;99.90
59146;DHT22;44928;53.074;6.646;2023-08-30T00:21:29;14.00;99.90
59146;DHT22;44928;53.074;6.646;2023-08-30T00:23:55;14.00;99.90
59146;DHT22;44928;53.074;6.646;2023-08-30T00:26:21;14.10;99.90
59146;DHT22;44928;53.074;6.646;2023-08-30T00:28:47;14.10;99.90
59146;DHT22;44928;53.074;6.646;2023-08-30T00:31:13;14.10;99.90
59146;DHT22;44928;53.074;6.646;2023-08-30T00:33:39;14.10;99.90
59146;DHT22;44928;53.074;6.646;2023-08-30T00:36:05;14.10;99.90
59146;DHT22;44928;53.074;6.646;2023-08-30T00:38:33;14.10;99.90
59146;DHT22;44928;53.074;6.646;2023-08-30T00:40:59;14.00;99.90
59146;DHT22;44928;53.074;6.646;2023-08-30T00:43:25;14.00;99.90
59146;DHT22;44928;53.074;6.646;2023-08-30T00:45:51;14.00;99.90
59146;DHT22;44928;53.074;6.646;2023-08-30T00:48:18;14.00;99.90
59146;DHT22;44928;53.074;6.646;2023-08-30T00:50:45;14.00;99.90
59146;DHT22;44928;53.074;6.646;2023-08-30T00:53:11;14.00;99.90
59146;DHT22;44928;53.074;6.646;2023-08-30T00:55:38;13.90;99.90
59146;DHT22;44928;53.074;6.646;2023-08-30T00:58:05;13.90;99.90
59146;DHT22;44928;53.074;6.646;2023-08-30T01:00:31;13.90;99.90
59146;DHT22;44928;53.074;6.646;2023-08-30T01:02:58;13.80;99.90
59146;DHT22;44928;53.074;6.646;2023-08-30T01:05:24;13.80;99.90
59146;DHT22;44928;53.074;6.646;2023-08-30T01:07:51;13.80;99.90
59146;DHT22;44928;53.074;6.646;2023-08-30T01:10:18;13.80;99.90
59146;DHT22;44928;53.074;6.646;2023-08-30T01:12:49;13.80;99.90
59146;DHT22;44928;53.074;6.646;2023-08-30T01:15:19;13.80;99.90
59146;DHT22;44928;53.074;6.646;2023-08-30T01:17:52;13.80;99.90
59146;DHT22;44928;53.074;6.646;2023-08-30T01:20:22;13.80;99.90
59146;DHT22;44928;53.074;6.646;2023-08-30T01:22:59;13.70;99.90
59146;DHT22;44928;53.074;6.646;2023-08-30T01:28:53;13.70;99.90
59146;DHT22;44928;53.074;6.646;2023-08-30T01:31:20;13.70;99.90
59146;DHT22;44928;53.074;6.646;2023-08-30T01:33:47;13.60;99.90
59146;DHT22;44928;53.074;6.646;2023-08-30T01:36:14;13.60;99.90
59146;DHT22;44928;53.074;6.646;2023-08-30T01:38:41;13.60;99.90
59146;DHT22;44928;53.074;6.646;2023-08-30T01:41:08;13.50;99.90
59146;DHT22;44928;53.074;6.646;2023-08-30T01:43:35;13.50;99.90
59146;DHT22;44928;53.074;6.646;2023-08-30T01:46:03;13.50;99.90
59146;DHT22;44928;53.074;6.646;2023-08-30T01:48:32;13.50;99.90
59146;DHT22;44928;53.074;6.646;2023-08-30T01:50:59;13.60;99.90
59146;DHT22;44928;53.074;6.646;2023-08-30T01:53:25;13.60;99.90
59146;DHT22;44928;53.074;6.646;2023-08-30T01:55:52;13.60;99.90
59146;DHT22;44928;53.074;6.646;2023-08-30T01:58:19;13.50;99.90
59146;DHT22;44928;53.074;6.646;2023-08-30T02:00:45;13.50;99.90
59146;DHT22;44928;53.074;6.646;2023-08-30T02:03:13;13.50;99.90
59146;DHT22;44928;53.074;6.646;2023-08-30T02:06:08;13.50;99.90
59146;DHT22;44928;53.074;6.646;2023-08-30T02:08:41;13.40;99.90
59146;DHT22;44928;53.074;6.646;2023-08-30T02:11:14;13.40;99.90
59146;DHT22;44928;53.074;6.646;2023-08-30T02:13:43;13.40;99.90
59146;DHT22;44928;53.074;6.646;2023-08-30T02:16:11;13.30;99.90
59146;DHT22;44928;53.074;6.646;2023-08-30T02:18:38;13.30;99.90
59146;DHT22;44928;53.074;6.646;2023-08-30T02:21:04;13.30;99.90
59146;DHT22;44928;53.074;6.646;2023-08-30T02:23:30;13.30;99.90
59146;DHT22;44928;53.074;6.646;2023-08-30T02:25:56;13.30;99.90
59146;DHT22;44928;53.074;6.646;2023-08-30T02:28:22;13.30;99.90
59146;DHT22;44928;53.074;6.646;2023-08-30T02:30:47;13.30;99.90
59146;DHT22;44928;53.074;6.646;2023-08-30T02:33:13;13.20;99.90
59146;DHT22;44928;53.074;6.646;2023-08-30T02:35:39;13.20;99.90
59146;DHT22;44928;53.074;6.646;2023-08-30T02:38:05;13.20;99.90
59146;DHT22;44928;53.074;6.646;2023-08-30T02:40:33;13.20;99.90
59146;DHT22;44928;53.074;6.646;2023-08-30T02:42:58;13.20;99.90
59146;DHT22;44928;53.074;6.646;2023-08-30T02:45:24;13.10;99.90
59146;DHT22;44928;53.074;6.646;2023-08-30T02:47:50;13.10;99.90
59146;DHT22;44928;53.074;6.646;2023-08-30T02:50:16;13.00;99.90
59146;DHT22;44928;53.074;6.646;2023-08-30T02:52:42;13.00;99.90
59146;DHT22;44928;53.074;6.646;2023-08-30T02:55:07;12.90;99.90
59146;DHT22;44928;53.074;6.646;2023-08-30T02:57:33;12.90;99.90
59146;DHT22;44928;53.074;6.646;2023-08-30T02:59:59;12.90;99.90
59146;DHT22;44928;53.074;6.646;2023-08-30T03:02:25;12.80;99.90
59146;DHT22;44928;53.074;6.646;2023-08-30T03:04:51;12.80;99.90
59146;DHT22;44928;53.074;6.646;2023-08-30T03:07:16;12.80;99.90
59146;DHT22;44928;53.074;6.646;2023-08-30T03:09:42;12.80;99.90
59146;DHT22;44928;53.074;6.646;2023-08-30T03:12:08;12.80;99.90
59146;DHT22;44928;53.074;6.646;2023-08-30T03:14:34;12.80;99.90
59146;DHT22;44928;53.074;6.646;2023-08-30T03:17:00;12.80;99.90
59146;DHT22;44928;53.074;6.646;2023-08-30T03:19:25;12.80;99.90
59146;DHT22;44928;53.074;6.646;2023-08-30T03:21:51;12.90;99.90
59146;DHT22;44928;53.074;6.646;2023-08-30T03:24:17;12.90;99.90
59146;DHT22;44928;53.074;6.646;2023-08-30T03:26:43;12.90;99.90
59146;DHT22;44928;53.074;6.646;2023-08-30T03:29:09;12.90;99.90
59146;DHT22;44928;53.074;6.646;2023-08-30T03:31:35;12.90;99.90
59146;DHT22;44928;53.074;6.646;2023-08-30T03:34:01;12.90;99.90
59146;DHT22;44928;53.074;6.646;2023-08-30T03:36:28;12.90;99.90
59146;DHT22;44928;53.074;6.646;2023-08-30T03:38:54;12.90;99.90
59146;DHT22;44928;53.074;6.646;2023-08-30T03:41:19;12.90;99.90
59146;DHT22;44928;53.074;6.646;2023-08-30T03:43:45;12.80;99.90
59146;DHT22;44928;53.074;6.646;2023-08-30T03:46:11;12.80;99.90
59146;DHT22;44928;53.074;6.646;2023-08-30T03:48:37;12.80;99.90
59146;DHT22;44928;53.074;6.646;2023-08-30T03:51:03;12.80;99.90
59146;DHT22;44928;53.074;6.646;2023-08-30T03:53:29;12.70;99.90
59146;DHT22;44928;53.074;6.646;2023-08-30T03:55:55;12.70;99.90
59146;DHT22;44928;53.074;6.646;2023-08-30T03:58:21;12.70;99.90
59146;DHT22;44928;53.074;6.646;2023-08-30T04:00:47;12.70;99.90
59146;DHT22;44928;53.074;6.646;2023-08-30T04:03:14;12.70;99.90
59146;DHT22;44928;53.074;6.646;2023-08-30T04:05:41;12.60;99.90
59146;DHT22;44928;53.074;6.646;2023-08-30T04:08:07;12.60;99.90
59146;DHT22;44928;53.074;6.646;2023-08-30T04:10:37;12.60;99.90
59146;DHT22;44928;53.074;6.646;2023-08-30T04:13:04;12.60;99.90
59146;DHT22;44928;53.074;6.646;2023-08-30T04:15:34;12.50;99.90
59146;DHT22;44928;53.074;6.646;2023-08-30T04:18:01;12.50;99.90
59146;DHT22;44928;53.074;6.646;2023-08-30T04:20:27;12.50;99.90
59146;DHT22;44928;53.074;6.646;2023-08-30T04:22:53;12.40;99.90
59146;DHT22;44928;53.074;6.646;2023-08-30T04:25:20;12.40;99.90
59146;DHT22;44928;53.074;6.646;2023-08-30T04:27:46;12.50;99.90
59146;DHT22;44928;53.074;6.646;2023-08-30T04:30:12;12.50;99.90
59146;DHT22;44928;53.074;6.646;2023-08-30T04:32:38;12.50;99.90
59146;DHT22;44928;53.074;6.646;2023-08-30T04:35:04;12.50;99.90
59146;DHT22;44928;53.074;6.646;2023-08-30T04:37:31;12.50;99.90
59146;DHT22;44928;53.074;6.646;2023-08-30T04:39:57;12.40;99.90
59146;DHT22;44928;53.074;6.646;2023-08-30T04:42:23;12.40;99.90
59146;DHT22;44928;53.074;6.646;2023-08-30T04:44:51;12.40;99.90
59146;DHT22;44928;53.074;6.646;2023-08-30T04:47:17;12.40;99.90
59146;DHT22;44928;53.074;6.646;2023-08-30T04:49:43;12.40;99.90
59146;DHT22;44928;53.074;6.646;2023-08-30T04:52:08;12.40;99.90
59146;DHT22;44928;53.074;6.646;2023-08-30T04:54:34;12.40;99.90
59146;DHT22;44928;53.074;6.646;2023-08-30T04:57:00;12.40;99.90
59146;DHT22;44928;53.074;6.646;2023-08-30T04:59:26;12.40;99.90
59146;DHT22;44928;53.074;6.646;2023-08-30T05:01:51;12.40;99.90
59146;DHT22;44928;53.074;6.646;2023-08-30T05:04:17;12.40;99.90
59146;DHT22;44928;53.074;6.646;2023-08-30T05:06:43;12.40;99.90
59146;DHT22;44928;53.074;6.646;2023-08-30T05:09:09;12.40;99.90
59146;DHT22;44928;53.074;6.646;2023-08-30T05:11:35;12.40;99.90
59146;DHT22;44928;53.074;6.646;2023-08-30T05:14:01;12.40;99.90
59146;DHT22;44928;53.074;6.646;2023-08-30T05:16:27;12.40;99.90
59146;DHT22;44928;53.074;6.646;2023-08-30T05:18:52;12.40;99.90
59146;DHT22;44928;53.074;6.646;2023-08-30T05:21:18;12.40;99.90
59146;DHT22;44928;53.074;6.646;2023-08-30T05:23:45;12.30;99.90
59146;DHT22;44928;53.074;6.646;2023-08-30T05:26:12;12.30;99.90
59146;DHT22;44928;53.074;6.646;2023-08-30T05:28:38;12.30;99.90
59146;DHT22;44928;53.074;6.646;2023-08-30T05:31:04;12.40;99.90
59146;DHT22;44928;53.074;6.646;2023-08-30T05:33:31;12.40;99.90
59146;DHT22;44928;53.074;6.646;2023-08-30T05:35:57;12.40;99.90
59146;DHT22;44928;53.074;6.646;2023-08-30T05:38:22;12.40;99.90
59146;DHT22;44928;53.074;6.646;2023-08-30T05:40:48;12.50;99.90
59146;DHT22;44928;53.074;6.646;2023-08-30T05:43:14;12.40;99.90
59146;DHT22;44928;53.074;6.646;2023-08-30T05:45:41;12.50;99.90
59146;DHT22;44928;53.074;6.646;2023-08-30T05:48:07;12.40;99.90
59146;DHT22;44928;53.074;6.646;2023-08-30T05:50:33;12.50;99.90
59146;DHT22;44928;53.074;6.646;2023-08-30T05:52:59;12.50;99.90
59146;DHT22;44928;53.074;6.646;2023-08-30T05:55:25;12.50;99.90
59146;DHT22;44928;53.074;6.646;2023-08-30T05:57:50;12.50;99.90
59146;DHT22;44928;53.074;6.646;2023-08-30T06:00:16;12.50;99.90
59146;DHT22;44928;53.074;6.646;2023-08-30T06:02:42;12.60;99.90
59146;DHT22;44928;53.074;6.646;2023-08-30T06:05:08;12.60;99.90
59146;DHT22;44928;53.074;6.646;2023-08-30T06:07:34;12.60;99.90
59146;DHT22;44928;53.074;6.646;2023-08-30T06:10:00;12.60;99.90
59146;DHT22;44928;53.074;6.646;2023-08-30T06:12:26;12.70;99.90
59146;DHT22;44928;53.074;6.646;2023-08-30T06:14:52;12.70;99.90
59146;DHT22;44928;53.074;6.646;2023-08-30T06:17:19;12.70;99.90
59146;DHT22;44928;53.074;6.646;2023-08-30T06:19:45;12.80;99.90
59146;DHT22;44928;53.074;6.646;2023-08-30T06:22:12;12.80;99.90
59146;DHT22;44928;53.074;6.646;2023-08-30T06:24:38;12.80;99.90
59146;DHT22;44928;53.074;6.646;2023-08-30T06:27:04;12.90;99.90
59146;DHT22;44928;53.074;6.646;2023-08-30T06:29:30;12.90;99.90
59146;DHT22;44928;53.074;6.646;2023-08-30T06:31:56;13.00;99.90
59146;DHT22;44928;53.074;6.646;2023-08-30T06:34:22;13.00;99.90
59146;DHT22;44928;53.074;6.646;2023-08-30T06:36:49;13.00;99.90
59146;DHT22;44928;53.074;6.646;2023-08-30T06:39:15;13.10;99.90
59146;DHT22;44928;53.074;6.646;2023-08-30T06:41:41;13.20;99.90
59146;DHT22;44928;53.074;6.646;2023-08-30T06:44:06;13.20;99.90
59146;DHT22;44928;53.074;6.646;2023-08-30T06:46:32;13.20;99.90
59146;DHT22;44928;53.074;6.646;2023-08-30T06:48:58;13.30;99.90
59146;DHT22;44928;53.074;6.646;2023-08-30T06:51:24;13.30;99.90
59146;DHT22;44928;53.074;6.646;2023-08-30T06:53:50;13.40;99.90
59146;DHT22;44928;53.074;6.646;2023-08-30T06:56:16;13.40;99.90
59146;DHT22;44928;53.074;6.646;2023-08-30T06:58:42;13.50;99.90
59146;DHT22;44928;53.074;6.646;2023-08-30T07:01:08;13.40;99.90
59146;DHT22;44928;53.074;6.646;2023-08-30T07:03:33;13.50;99.90
59146;DHT22;44928;53.074;6.646;2023-08-30T07:05:59;13.50;99.90
59146;DHT22;44928;53.074;6.646;2023-08-30T07:08:25;13.50;99.90
59146;DHT22;44928;53.074;6.646;2023-08-30T07:10:52;13.50;99.90
59146;DHT22;44928;53.074;6.646;2023-08-30T07:13:18;13.50;99.90
59146;DHT22;44928;53.074;6.646;2023-08-30T07:15:43;13.60;99.90
59146;DHT22;44928;53.074;6.646;2023-08-30T07:18:09;13.60;99.90
59146;DHT22;44928;53.074;6.646;2023-08-30T07:20:35;13.60;99.90
59146;DHT22;44928;53.074;6.646;2023-08-30T07:23:02;13.60;99.90
59146;DHT22;44928;53.074;6.646;2023-08-30T07:25:31;13.70;99.90
59146;DHT22;44928;53.074;6.646;2023-08-30T07:28:03;13.70;99.90
59146;DHT22;44928;53.074;6.646;2023-08-30T07:30:28;13.80;99.90
59146;DHT22;44928;53.074;6.646;2023-08-30T07:32:55;13.80;99.90
59146;DHT22;44928;53.074;6.646;2023-08-30T07:35:21;13.80;99.90
59146;DHT22;44928;53.074;6.646;2023-08-30T07:37:46;13.90;99.90
59146;DHT22;44928;53.074;6.646;2023-08-30T07:40:13;13.90;99.90
59146;DHT22;44928;53.074;6.646;2023-08-30T07:42:39;14.00;99.90
59146;DHT22;44928;53.074;6.646;2023-08-30T07:45:05;14.00;99.90
59146;DHT22;44928;53.074;6.646;2023-08-30T07:47:31;14.10;99.90
59146;DHT22;44928;53.074;6.646;2023-08-30T07:49:57;14.20;99.90
59146;DHT22;44928;53.074;6.646;2023-08-30T07:52:23;14.20;99.90
59146;DHT22;44928;53.074;6.646;2023-08-30T07:54:48;14.30;99.90
59146;DHT22;44928;53.074;6.646;2023-08-30T07:57:14;14.30;99.90
59146;DHT22;44928;53.074;6.646;2023-08-30T07:59:40;14.40;99.90
59146;DHT22;44928;53.074;6.646;2023-08-30T08:02:07;14.50;99.90
59146;DHT22;44928;53.074;6.646;2023-08-30T08:04:36;14.50;99.90
59146;DHT22;44928;53.074;6.646;2023-08-30T08:07:03;14.60;99.90
59146;DHT22;44928;53.074;6.646;2023-08-30T08:09:29;14.60;99.90
59146;DHT22;44928;53.074;6.646;2023-08-30T08:11:55;14.70;99.90
59146;DHT22;44928;53.074;6.646;2023-08-30T08:14:22;14.70;99.90
59146;DHT22;44928;53.074;6.646;2023-08-30T08:16:48;14.80;99.90
59146;DHT22;44928;53.074;6.646;2023-08-30T08:19:14;14.80;99.90
59146;DHT22;44928;53.074;6.646;2023-08-30T08:21:40;14.90;99.90
59146;DHT22;44928;53.074;6.646;2023-08-30T08:24:06;14.90;99.90
59146;DHT22;44928;53.074;6.646;2023-08-30T08:26:32;15.00;99.90
59146;DHT22;44928;53.074;6.646;2023-08-30T08:28:58;15.10;99.90
59146;DHT22;44928;53.074;6.646;2023-08-30T08:31:23;15.10;99.90
59146;DHT22;44928;53.074;6.646;2023-08-30T08:34:07;15.20;99.90
59146;DHT22;44928;53.074;6.646;2023-08-30T08:36:33;15.20;99.90
59146;DHT22;44928;53.074;6.646;2023-08-30T08:38:59;15.30;99.90
59146;DHT22;44928;53.074;6.646;2023-08-30T08:41:29;15.30;99.90
59146;DHT22;44928;53.074;6.646;2023-08-30T08:43:58;15.40;99.90
59146;DHT22;44928;53.074;6.646;2023-08-30T08:46:26;15.40;99.90
59146;DHT22;44928;53.074;6.646;2023-08-30T08:48:56;15.40;99.90
59146;DHT22;44928;53.074;6.646;2023-08-30T08:51:23;15.50;99.90
59146;DHT22;44928;53.074;6.646;2023-08-30T08:53:50;15.50;99.90
59146;DHT22;44928;53.074;6.646;2023-08-30T08:56:17;15.60;99.90
59146;DHT22;44928;53.074;6.646;2023-08-30T08:58:43;15.60;99.90
59146;DHT22;44928;53.074;6.646;2023-08-30T09:01:09;15.70;99.90
59146;DHT22;44928;53.074;6.646;2023-08-30T09:03:36;15.70;99.90
59146;DHT22;44928;53.074;6.646;2023-08-30T09:06:03;15.70;99.90
59146;DHT22;44928;53.074;6.646;2023-08-30T09:08:29;15.70;99.90
59146;DHT22;44928;53.074;6.646;2023-08-30T09:10:54;15.70;99.90
59146;DHT22;44928;53.074;6.646;2023-08-30T09:13:20;15.70;99.90
59146;DHT22;44928;53.074;6.646;2023-08-30T09:15:48;15.80;99.90
59146;DHT22;44928;53.074;6.646;2023-08-30T09:18:18;15.80;99.90
59146;DHT22;44928;53.074;6.646;2023-08-30T09:20:44;15.70;99.90
59146;DHT22;44928;53.074;6.646;2023-08-30T09:23:18;15.70;99.90
59146;DHT22;44928;53.074;6.646;2023-08-30T09:25:44;15.70;99.90
59146;DHT22;44928;53.074;6.646;2023-08-30T09:28:10;15.70;99.90
59146;DHT22;44928;53.074;6.646;2023-08-30T09:30:36;15.70;99.90
59146;DHT22;44928;53.074;6.646;2023-08-30T09:33:02;15.70;99.90
59146;DHT22;44928;53.074;6.646;2023-08-30T09:35:29;15.70;99.90
59146;DHT22;44928;53.074;6.646;2023-08-30T09:37:55;15.70;99.90
59146;DHT22;44928;53.074;6.646;2023-08-30T09:40:21;15.60;99.90
59146;DHT22;44928;53.074;6.646;2023-08-30T09:42:48;15.60;99.90
59146;DHT22;44928;53.074;6.646;2023-08-30T09:45:22;15.60;99.90
59146;DHT22;44928;53.074;6.646;2023-08-30T09:47:49;15.60;99.90
59146;DHT22;44928;53.074;6.646;2023-08-30T09:50:18;15.60;99.90
59146;DHT22;44928;53.074;6.646;2023-08-30T09:52:48;15.50;99.90
59146;DHT22;44928;53.074;6.646;2023-08-30T09:55:15;15.50;99.90
59146;DHT22;44928;53.074;6.646;2023-08-30T09:57:44;15.40;99.90
59146;DHT22;44928;53.074;6.646;2023-08-30T10:00:11;15.40;99.90
59146;DHT22;44928;53.074;6.646;2023-08-30T10:02:41;15.30;99.90
59146;DHT22;44928;53.074;6.646;2023-08-30T10:05:10;15.30;99.90
59146;DHT22;44928;53.074;6.646;2023-08-30T10:07:36;15.30;99.90
59146;DHT22;44928;53.074;6.646;2023-08-30T10:10:03;15.20;99.90
59146;DHT22;44928;53.074;6.646;2023-08-30T10:12:33;15.20;99.90
59146;DHT22;44928;53.074;6.646;2023-08-30T10:14:59;15.20;99.90
59146;DHT22;44928;53.074;6.646;2023-08-30T10:17:31;15.20;99.90
59146;DHT22;44928;53.074;6.646;2023-08-30T10:19:59;15.20;99.90
59146;DHT22;44928;53.074;6.646;2023-08-30T10:22:26;15.30;99.90
59146;DHT22;44928;53.074;6.646;2023-08-30T10:25:02;15.30;99.90
59146;DHT22;44928;53.074;6.646;2023-08-30T10:27:31;15.50;99.90
59146;DHT22;44928;53.074;6.646;2023-08-30T10:30:00;15.50;99.90
59146;DHT22;44928;53.074;6.646;2023-08-30T10:32:26;15.60;99.90
59146;DHT22;44928;53.074;6.646;2023-08-30T10:34:52;15.60;99.90
59146;DHT22;44928;53.074;6.646;2023-08-30T10:37:26;15.60;99.90
59146;DHT22;44928;53.074;6.646;2023-08-30T10:39:52;15.60;99.90
59146;DHT22;44928;53.074;6.646;2023-08-30T10:42:22;15.60;99.90
59146;DHT22;44928;53.074;6.646;2023-08-30T10:47:28;15.60;99.90
59146;DHT22;44928;53.074;6.646;2023-08-30T10:49:55;15.60;99.90
59146;DHT22;44928;53.074;6.646;2023-08-30T10:52:22;15.70;99.90
59146;DHT22;44928;53.074;6.646;2023-08-30T10:54:48;15.70;99.90
59146;DHT22;44928;53.074;6.646;2023-08-30T10:57:24;15.80;99.90
59146;DHT22;44928;53.074;6.646;2023-08-30T11:00:11;15.80;99.90
59146;DHT22;44928;53.074;6.646;2023-08-30T11:02:42;15.90;99.90
59146;DHT22;44928;53.074;6.646;2023-08-30T11:05:08;15.90;99.90
59146;DHT22;44928;53.074;6.646;2023-08-30T11:07:35;15.90;99.90
59146;DHT22;44928;53.074;6.646;2023-08-30T11:10:01;15.90;99.90
59146;DHT22;44928;53.074;6.646;2023-08-30T11:12:29;15.90;99.90
59146;DHT22;44928;53.074;6.646;2023-08-30T11:14:56;16.00;99.90
59146;DHT22;44928;53.074;6.646;2023-08-30T11:17:22;16.00;99.90
59146;DHT22;44928;53.074;6.646;2023-08-30T11:20:13;16.00;99.90
59146;DHT22;44928;53.074;6.646;2023-08-30T11:22:46;16.00;99.90
59146;DHT22;44928;53.074;6.646;2023-08-30T11:25:14;16.00;99.90
59146;DHT22;44928;53.074;6.646;2023-08-30T11:27:41;16.00;99.90
59146;DHT22;44928;53.074;6.646;2023-08-30T11:30:08;16.00;99.90
59146;DHT22;44928;53.074;6.646;2023-08-30T11:32:36;15.90;99.90
59146;DHT22;44928;53.074;6.646;2023-08-30T11:35:03;15.90;99.90
59146;DHT22;44928;53.074;6.646;2023-08-30T11:37:29;16.00;99.90
59146;DHT22;44928;53.074;6.646;2023-08-30T11:39:55;15.90;99.90
59146;DHT22;44928;53.074;6.646;2023-08-30T11:42:22;15.90;99.90
59146;DHT22;44928;53.074;6.646;2023-08-30T11:44:49;15.90;99.90
59146;DHT22;44928;53.074;6.646;2023-08-30T11:47:21;15.90;99.90
59146;DHT22;44928;53.074;6.646;2023-08-30T11:49:49;15.90;99.90
59146;DHT22;44928;53.074;6.646;2023-08-30T11:52:16;15.80;99.90
59146;DHT22;44928;53.074;6.646;2023-08-30T11:54:43;15.80;99.90
59146;DHT22;44928;53.074;6.646;2023-08-30T11:57:09;15.80;99.90
59146;DHT22;44928;53.074;6.646;2023-08-30T11:59:35;15.80;99.90
59146;DHT22;44928;53.074;6.646;2023-08-30T12:02:03;15.70;99.90
59146;DHT22;44928;53.074;6.646;2023-08-30T12:04:30;15.80;99.90
59146;DHT22;44928;53.074;6.646;2023-08-30T12:06:56;15.70;99.90
59146;DHT22;44928;53.074;6.646;2023-08-30T12:09:22;15.70;99.90
59146;DHT22;44928;53.074;6.646;2023-08-30T12:11:51;15.70;99.90
59146;DHT22;44928;53.074;6.646;2023-08-30T12:14:17;15.70;99.90
59146;DHT22;44928;53.074;6.646;2023-08-30T12:16:43;15.60;99.90
59146;DHT22;44928;53.074;6.646;2023-08-30T12:19:12;15.60;99.90
59146;DHT22;44928;53.074;6.646;2023-08-30T12:21:46;15.60;99.90
59146;DHT22;44928;53.074;6.646;2023-08-30T12:24:12;15.60;99.90
59146;DHT22;44928;53.074;6.646;2023-08-30T12:26:38;15.60;99.90
59146;DHT22;44928;53.074;6.646;2023-08-30T12:29:05;15.60;99.90
59146;DHT22;44928;53.074;6.646;2023-08-30T12:31:32;15.60;99.90
59146;DHT22;44928;53.074;6.646;2023-08-30T12:33:58;15.60;99.90
59146;DHT22;44928;53.074;6.646;2023-08-30T12:36:24;15.60;99.90
59146;DHT22;44928;53.074;6.646;2023-08-30T12:38:50;15.60;99.90
59146;DHT22;44928;53.074;6.646;2023-08-30T12:41:16;15.60;99.90
59146;DHT22;44928;53.074;6.646;2023-08-30T12:43:42;15.60;99.90
59146;DHT22;44928;53.074;6.646;2023-08-30T12:46:08;15.60;99.90
59146;DHT22;44928;53.074;6.646;2023-08-30T12:48:33;15.50;99.90
59146;DHT22;44928;53.074;6.646;2023-08-30T12:50:59;15.50;99.90
59146;DHT22;44928;53.074;6.646;2023-08-30T12:53:25;15.50;99.90
59146;DHT22;44928;53.074;6.646;2023-08-30T12:55:51;15.50;99.90
59146;DHT22;44928;53.074;6.646;2023-08-30T12:58:17;15.50;99.90
59146;DHT22;44928;53.074;6.646;2023-08-30T13:00:43;15.50;99.90
59146;DHT22;44928;53.074;6.646;2023-08-30T13:03:08;15.50;99.90
59146;DHT22;44928;53.074;6.646;2023-08-30T13:05:34;15.50;99.90
59146;DHT22;44928;53.074;6.646;2023-08-30T13:08:02;15.50;99.90
59146;DHT22;44928;53.074;6.646;2023-08-30T13:10:28;15.50;99.90
59146;DHT22;44928;53.074;6.646;2023-08-30T13:12:54;15.50;99.90
59146;DHT22;44928;53.074;6.646;2023-08-30T13:15:21;15.50;99.90
59146;DHT22;44928;53.074;6.646;2023-08-30T13:17:46;15.60;99.90
59146;DHT22;44928;53.074;6.646;2023-08-30T13:20:12;15.60;99.90
59146;DHT22;44928;53.074;6.646;2023-08-30T13:22:38;15.60;99.90
59146;DHT22;44928;53.074;6.646;2023-08-30T13:25:04;15.60;99.90
59146;DHT22;44928;53.074;6.646;2023-08-30T13:27:30;15.60;99.90
59146;DHT22;44928;53.074;6.646;2023-08-30T13:29:56;15.60;99.90
59146;DHT22;44928;53.074;6.646;2023-08-30T13:32:22;15.60;99.90
59146;DHT22;44928;53.074;6.646;2023-08-30T13:34:50;15.60;99.90
59146;DHT22;44928;53.074;6.646;2023-08-30T13:37:15;15.60;99.90
59146;DHT22;44928;53.074;6.646;2023-08-30T13:39:41;15.70;99.90
59146;DHT22;44928;53.074;6.646;2023-08-30T13:42:07;15.70;99.90
59146;DHT22;44928;53.074;6.646;2023-08-30T13:44:33;15.70;99.90
59146;DHT22;44928;53.074;6.646;2023-08-30T13:47:04;15.70;99.90
59146;DHT22;44928;53.074;6.646;2023-08-30T13:49:30;15.70;99.90
59146;DHT22;44928;53.074;6.646;2023-08-30T13:51:56;15.60;99.90
59146;DHT22;44928;53.074;6.646;2023-08-30T13:54:22;15.50;99.90
59146;DHT22;44928;53.074;6.646;2023-08-30T13:56:48;15.50;99.90
59146;DHT22;44928;53.074;6.646;2023-08-30T13:59:15;15.40;99.90
59146;DHT22;44928;53.074;6.646;2023-08-30T14:01:40;15.30;99.90
59146;DHT22;44928;53.074;6.646;2023-08-30T14:04:07;15.20;99.90
59146;DHT22;44928;53.074;6.646;2023-08-30T14:06:33;15.10;99.90
59146;DHT22;44928;53.074;6.646;2023-08-30T14:08:59;15.00;99.90
59146;DHT22;44928;53.074;6.646;2023-08-30T14:11:24;15.10;99.90
59146;DHT22;44928;53.074;6.646;2023-08-30T14:13:50;15.00;99.90
59146;DHT22;44928;53.074;6.646;2023-08-30T14:16:16;15.00;99.90
59146;DHT22;44928;53.074;6.646;2023-08-30T14:18:43;15.00;99.90
59146;DHT22;44928;53.074;6.646;2023-08-30T14:21:08;15.00;99.90
59146;DHT22;44928;53.074;6.646;2023-08-30T14:23:34;15.00;99.90
59146;DHT22;44928;53.074;6.646;2023-08-30T14:26:04;15.00;99.90
59146;DHT22;44928;53.074;6.646;2023-08-30T14:28:41;15.00;99.90
59146;DHT22;44928;53.074;6.646;2023-08-30T14:31:10;15.00;99.90
59146;DHT22;44928;53.074;6.646;2023-08-30T14:33:37;15.00;99.90
59146;DHT22;44928;53.074;6.646;2023-08-30T14:36:08;14.90;99.90
59146;DHT22;44928;53.074;6.646;2023-08-30T14:38:34;15.00;99.90
59146;DHT22;44928;53.074;6.646;2023-08-30T14:41:02;15.00;99.90
59146;DHT22;44928;53.074;6.646;2023-08-30T14:43:28;15.00;99.90
59146;DHT22;44928;53.074;6.646;2023-08-30T14:48:27;14.90;99.90
59146;DHT22;44928;53.074;6.646;2023-08-30T14:50:53;14.90;99.90
59146;DHT22;44928;53.074;6.646;2023-08-30T14:53:18;14.90;99.90
59146;DHT22;44928;53.074;6.646;2023-08-30T14:55:45;14.90;99.90
59146;DHT22;44928;53.074;6.646;2023-08-30T14:58:12;14.90;99.90
59146;DHT22;44928;53.074;6.646;2023-08-30T15:00:39;14.90;99.90
59146;DHT22;44928;53.074;6.646;2023-08-30T15:03:04;14.90;99.90
59146;DHT22;44928;53.074;6.646;2023-08-30T15:05:30;15.00;99.90
59146;DHT22;44928;53.074;6.646;2023-08-30T15:07:56;15.00;99.90
59146;DHT22;44928;53.074;6.646;2023-08-30T15:10:22;15.00;99.90
59146;DHT22;44928;53.074;6.646;2023-08-30T15:12:48;15.10;99.90
59146;DHT22;44928;53.074;6.646;2023-08-30T15:15:14;15.10;99.90
59146;DHT22;44928;53.074;6.646;2023-08-30T15:17:40;15.20;99.90
59146;DHT22;44928;53.074;6.646;2023-08-30T15:20:07;15.20;99.90
59146;DHT22;44928;53.074;6.646;2023-08-30T15:22:34;15.20;99.90
59146;DHT22;44928;53.074;6.646;2023-08-30T15:25:00;15.20;99.90
59146;DHT22;44928;53.074;6.646;2023-08-30T15:27:30;15.20;99.90
59146;DHT22;44928;53.074;6.646;2023-08-30T15:29:56;15.20;99.90
59146;DHT22;44928;53.074;6.646;2023-08-30T15:32:23;15.20;99.90
59146;DHT22;44928;53.074;6.646;2023-08-30T15:34:50;15.20;99.90
59146;DHT22;44928;53.074;6.646;2023-08-30T15:37:16;15.30;99.90